createdAt,value
2023-04-24T00:00:32.240Z,11.10
2023-04-24T00:03:01.383Z,11.10
2023-04-24T00:05:29.976Z,11.10
2023-04-24T00:07:58.240Z,11.00
2023-04-24T00:10:26.553Z,10.90
2023-04-24T00:12:56.162Z,10.90
2023-04-24T00:15:25.141Z,10.90
2023-04-24T00:17:54.478Z,10.80
2023-04-24T00:20:23.660Z,10.90
2023-04-24T00:22:52.126Z,10.80
2023-04-24T00:25:20.441Z,10.70
2023-04-24T00:27:48.761Z,10.70
2023-04-24T00:30:18.465Z,10.70
2023-04-24T00:32:47.823Z,10.70
2023-04-24T00:35:16.697Z,10.70
2023-04-24T00:37:44.957Z,10.60
2023-04-24T00:40:13.934Z,10.60
2023-04-24T00:42:43.672Z,10.60
2023-04-24T00:45:12.846Z,10.60
2023-04-24T00:47:43.918Z,10.60
2023-04-24T00:50:14.581Z,10.60
2023-04-24T00:52:42.877Z,10.50
2023-04-24T00:55:11.522Z,10.60
2023-04-24T00:57:39.849Z,10.50
2023-04-24T01:00:13.020Z,10.50
2023-04-24T01:02:46.632Z,10.50
2023-04-24T01:05:16.140Z,10.50
2023-04-24T01:07:46.933Z,10.50
2023-04-24T01:10:16.614Z,10.40
2023-04-24T01:12:47.278Z,10.40
2023-04-24T01:15:15.734Z,10.40
2023-04-24T01:17:46.203Z,10.40
2023-04-24T01:20:16.729Z,10.40
2023-04-24T01:22:46.491Z,10.40
2023-04-24T01:25:14.801Z,10.40
2023-04-24T01:27:43.093Z,10.40
2023-04-24T01:30:12.624Z,10.40
2023-04-24T01:32:42.495Z,10.30
2023-04-24T01:35:10.983Z,10.20
2023-04-24T01:37:39.404Z,10.20
2023-04-24T01:40:10.708Z,10.20
2023-04-24T01:42:39.351Z,10.20
2023-04-24T01:45:08.690Z,10.20
2023-04-24T01:47:37.161Z,10.10
2023-04-24T01:50:06.486Z,10.10
2023-04-24T01:52:36.263Z,10.10
2023-04-24T01:55:04.983Z,10.10
2023-04-24T01:57:35.521Z,10.10
2023-04-24T02:00:05.748Z,10.10
2023-04-24T02:02:34.511Z,10.10
2023-04-24T02:05:03.795Z,10.00
2023-04-24T02:07:32.283Z,10.00
2023-04-24T02:10:00.652Z,10.10
2023-04-24T02:12:29.081Z,10.10
2023-04-24T02:14:59.719Z,10.00
2023-04-24T02:17:28.030Z,10.00
2023-04-24T02:19:56.262Z,10.00
2023-04-24T02:22:24.790Z,10.00
2023-04-24T02:24:52.913Z,10.00
2023-04-24T02:27:21.265Z,10.00
2023-04-24T02:29:50.043Z,10.00
2023-04-24T02:32:20.157Z,10.10
2023-04-24T02:34:50.488Z,10.10
2023-04-24T02:37:19.201Z,10.20
2023-04-24T02:39:47.639Z,10.20
2023-04-24T02:42:16.725Z,10.20
2023-04-24T02:44:46.080Z,10.10
2023-04-24T02:47:14.301Z,10.30
2023-04-24T02:49:44.944Z,10.30
2023-04-24T02:52:14.224Z,10.30
2023-04-24T02:54:42.560Z,10.20
2023-04-24T02:57:10.855Z,10.30
2023-04-24T02:59:39.293Z,10.30
2023-04-24T03:02:07.747Z,10.30
2023-04-24T03:04:36.707Z,10.30
2023-04-24T03:07:07.239Z,10.30
2023-04-24T03:09:35.482Z,10.30
2023-04-24T03:12:03.667Z,10.30
2023-04-24T03:14:32.373Z,10.50
2023-04-24T03:17:03.763Z,10.50
2023-04-24T03:19:32.161Z,10.40
2023-04-24T03:22:00.555Z,10.50
2023-04-24T03:24:30.180Z,10.50
2023-04-24T03:26:58.399Z,10.50
2023-04-24T03:29:27.503Z,10.40
2023-04-24T03:31:57.211Z,10.40
2023-04-24T03:34:26.029Z,10.50
2023-04-24T03:36:54.608Z,10.40
2023-04-24T03:39:23.390Z,10.40
2023-04-24T03:41:53.798Z,10.40
2023-04-24T03:44:21.982Z,10.40
2023-04-24T03:46:50.320Z,10.30
2023-04-24T03:49:21.915Z,10.20
2023-04-24T03:51:50.509Z,10.20
2023-04-24T03:54:18.692Z,10.20
2023-04-24T03:56:47.433Z,10.10
2023-04-24T03:59:17.676Z,10.10
2023-04-24T04:01:46.532Z,10.10
2023-04-24T04:04:14.949Z,10.10
2023-04-24T04:06:43.395Z,10.20
2023-04-24T04:09:11.659Z,10.30
2023-04-24T04:11:40.019Z,10.20
2023-04-24T04:14:08.754Z,10.20
2023-04-24T04:16:38.703Z,10.20
2023-04-24T04:19:07.382Z,10.20
2023-04-24T04:21:35.898Z,10.30
2023-04-24T04:24:06.458Z,10.30
2023-04-24T04:26:34.783Z,10.40
2023-04-24T04:29:04.259Z,10.30
2023-04-24T04:31:32.882Z,10.40
2023-04-24T04:34:02.638Z,10.30
2023-04-24T04:36:31.531Z,10.30
2023-04-24T04:39:00.512Z,10.40
2023-04-24T04:41:28.725Z,10.40
2023-04-24T04:43:59.587Z,10.40
2023-04-24T04:46:28.165Z,10.40
2023-04-24T04:48:57.672Z,10.30
2023-04-24T04:51:27.294Z,10.20
2023-04-24T04:53:55.800Z,10.10
2023-04-24T04:56:24.115Z,10.20
2023-04-24T04:58:52.492Z,10.10
2023-04-24T05:01:21.173Z,10.00
2023-04-24T05:03:49.785Z,10.00
2023-04-24T05:06:18.304Z,10.00
2023-04-24T05:08:48.049Z,10.10
2023-04-24T05:11:16.445Z,10.10
2023-04-24T05:13:44.654Z,10.00
2023-04-24T05:16:15.557Z,10.00
2023-04-24T05:18:43.862Z,10.10
2023-04-24T05:21:12.124Z,10.00
2023-04-24T05:23:40.881Z,10.00
2023-04-24T05:26:10.628Z,10.10
2023-04-24T05:28:39.316Z,10.10
2023-04-24T05:31:07.573Z,10.10
2023-04-24T05:33:35.863Z,10.10
2023-04-24T05:36:04.331Z,10.00
2023-04-24T05:38:32.560Z,10.00
2023-04-24T05:41:00.858Z,10.00
2023-04-24T05:43:30.508Z,10.10
2023-04-24T05:45:59.117Z,10.10
2023-04-24T05:48:27.934Z,10.10
2023-04-24T05:50:56.470Z,10.10
2023-04-24T05:53:25.924Z,10.10
2023-04-24T05:55:54.205Z,10.10
2023-04-24T05:58:25.446Z,10.10
2023-04-24T06:00:56.185Z,10.20
2023-04-24T06:03:24.700Z,10.10
2023-04-24T06:05:53.736Z,10.10
2023-04-24T06:08:22.118Z,10.00
2023-04-24T06:10:50.706Z,9.90
2023-04-24T06:13:18.929Z,9.80
2023-04-24T06:15:47.379Z,9.30
2023-04-24T06:18:17.004Z,9.20
2023-04-24T06:20:45.297Z,9.00
2023-04-24T06:23:13.636Z,8.90
2023-04-24T06:25:42.073Z,9.00
2023-04-24T06:28:10.640Z,9.20
2023-04-24T06:30:39.094Z,9.60
2023-04-24T06:33:19.398Z,9.70
2023-04-24T06:35:51.167Z,9.70
2023-04-24T06:38:19.551Z,10.10
2023-04-24T06:40:47.855Z,10.70
2023-04-24T06:43:16.124Z,11.10
2023-04-24T06:45:45.388Z,11.00
2023-04-24T06:48:14.101Z,11.30
2023-04-24T06:50:42.311Z,11.30
2023-04-24T06:53:13.689Z,11.40
2023-04-24T06:55:42.233Z,11.60
2023-04-24T06:58:10.887Z,11.80
2023-04-24T07:00:39.400Z,11.60
2023-04-24T07:03:07.893Z,11.50
2023-04-24T07:05:36.412Z,11.40
2023-04-24T07:08:05.872Z,11.10
2023-04-24T07:10:38.762Z,11.90
2023-04-24T07:13:08.045Z,11.60
2023-04-24T07:15:36.463Z,10.90
2023-04-24T07:18:06.087Z,10.50
2023-04-24T07:20:35.349Z,10.50
2023-04-24T07:23:04.855Z,11.90
2023-04-24T07:25:36.501Z,12.80
2023-04-24T07:28:06.712Z,13.40
2023-04-24T07:30:37.910Z,13.70
2023-04-24T07:35:36.477Z,14.10
2023-04-24T07:38:05.062Z,14.60
2023-04-24T07:40:33.935Z,13.80
2023-04-24T07:43:02.334Z,13.70
2023-04-24T07:45:32.248Z,14.10
2023-04-24T07:48:00.734Z,14.20
2023-04-24T07:50:29.056Z,14.50
2023-04-24T07:52:57.412Z,15.00
2023-04-24T07:55:28.105Z,14.90
2023-04-24T07:57:56.855Z,13.60
2023-04-24T08:00:25.128Z,12.90
2023-04-24T08:02:55.566Z,13.80
2023-04-24T08:05:26.797Z,14.20
2023-04-24T08:07:55.564Z,13.50
2023-04-24T08:10:24.927Z,13.50
2023-04-24T08:12:53.370Z,13.90
2023-04-24T08:15:21.710Z,14.30
2023-04-24T08:17:52.217Z,14.90
2023-04-24T08:20:21.887Z,14.00
2023-04-24T08:22:50.441Z,13.40
2023-04-24T08:25:19.580Z,13.20
2023-04-24T08:27:48.405Z,13.70
2023-04-24T08:30:16.956Z,14.40
2023-04-24T08:32:45.712Z,14.40
2023-04-24T08:35:14.431Z,14.00
2023-04-24T08:37:44.234Z,13.10
2023-04-24T08:40:16.320Z,12.90
2023-04-24T08:42:45.467Z,13.70
2023-04-24T08:45:15.021Z,14.20
2023-04-24T08:47:47.041Z,15.10
2023-04-24T08:50:16.626Z,15.20
2023-04-24T08:52:46.762Z,15.20
2023-04-24T08:55:18.336Z,15.10
2023-04-24T08:57:50.536Z,15.40
2023-04-24T09:00:20.369Z,15.70
2023-04-24T09:02:51.049Z,16.30
2023-04-24T09:05:20.852Z,14.80
2023-04-24T09:07:56.621Z,13.70
2023-04-24T09:10:26.703Z,12.40
2023-04-24T09:12:56.116Z,11.90
2023-04-24T09:15:25.770Z,11.50
2023-04-24T09:17:55.552Z,11.20
2023-04-24T09:20:24.041Z,10.90
2023-04-24T09:22:57.215Z,10.70
2023-04-24T09:25:32.893Z,10.80
2023-04-24T09:28:04.044Z,10.90
2023-04-24T09:31:29.721Z,10.90
2023-04-24T09:34:09.533Z,10.80
2023-04-24T09:36:42.526Z,10.90
2023-04-24T09:39:26.055Z,10.70
2023-04-24T09:42:05.777Z,10.80
2023-04-24T09:44:38.740Z,10.80
2023-04-24T09:47:11.743Z,11.20
2023-04-24T09:49:42.543Z,11.20
2023-04-24T09:52:13.047Z,11.30
2023-04-24T09:54:43.636Z,11.40
2023-04-24T09:57:12.056Z,12.00
2023-04-24T09:59:45.885Z,12.30
2023-04-24T10:06:09.809Z,12.10
2023-04-24T10:08:39.474Z,12.00
2023-04-24T10:11:12.079Z,12.00
2023-04-24T10:13:42.590Z,11.90
2023-04-24T10:16:11.902Z,11.60
2023-04-24T10:18:42.449Z,11.50
2023-04-24T10:21:11.226Z,11.30
2023-04-24T10:23:43.262Z,11.40
2023-04-24T10:26:18.631Z,11.70
2023-04-24T10:28:50.358Z,12.10
2023-04-24T10:31:20.524Z,12.20
2023-04-24T10:33:49.935Z,12.20
2023-04-24T10:36:20.007Z,12.90
2023-04-24T10:38:50.416Z,12.90
2023-04-24T10:41:24.572Z,12.50
2023-04-24T10:44:07.088Z,12.80
2023-04-24T10:46:35.698Z,13.20
2023-04-24T10:49:09.743Z,13.20
2023-04-24T10:51:49.792Z,12.30
2023-04-24T10:54:25.571Z,11.90
2023-04-24T10:56:58.107Z,11.40
2023-04-24T10:59:27.895Z,11.80
2023-04-24T11:01:57.151Z,11.90
2023-04-24T11:04:32.646Z,12.00
2023-04-24T11:07:01.468Z,11.80
2023-04-24T11:09:32.397Z,12.00
2023-04-24T11:12:10.528Z,11.80
2023-04-24T11:15:03.657Z,12.00
2023-04-24T11:17:34.545Z,12.20
2023-04-24T11:20:22.989Z,11.80
2023-04-24T11:22:58.504Z,11.30
2023-04-24T11:25:26.834Z,10.90
2023-04-24T11:28:06.067Z,10.80
2023-04-24T11:30:36.362Z,10.30
2023-04-24T11:33:06.471Z,10.00
2023-04-24T11:35:41.653Z,9.70
2023-04-24T11:38:24.685Z,9.50
2023-04-24T11:40:55.410Z,9.50
2023-04-24T11:43:25.896Z,9.40
2023-04-24T11:45:55.350Z,9.40
2023-04-24T11:48:24.694Z,9.50
2023-04-24T11:50:53.596Z,9.60
2023-04-24T11:53:22.928Z,9.50
2023-04-24T11:55:53.044Z,9.60
2023-04-24T11:58:24.436Z,9.60
2023-04-24T12:00:59.621Z,9.80
2023-04-24T12:03:28.275Z,9.90
2023-04-24T12:06:08.912Z,9.80
2023-04-24T12:08:38.911Z,9.80
2023-04-24T12:11:09.184Z,9.90
2023-04-24T12:13:39.016Z,10.10
2023-04-24T12:16:07.545Z,10.10
2023-04-24T12:18:36.215Z,9.80
2023-04-24T12:21:22.710Z,9.80
2023-04-24T12:23:52.546Z,9.80
2023-04-24T12:26:22.260Z,9.80
2023-04-24T12:28:52.696Z,9.90
2023-04-24T12:31:23.669Z,9.70
2023-04-24T12:33:52.370Z,9.70
2023-04-24T12:36:23.425Z,9.80
2023-04-24T12:38:55.272Z,9.80
2023-04-24T12:41:23.812Z,9.60
2023-04-24T12:43:56.929Z,9.90
2023-04-24T12:46:25.305Z,9.90
2023-04-24T12:48:54.130Z,10.00
2023-04-24T12:51:22.533Z,9.80
2023-04-24T12:53:50.898Z,9.50
2023-04-24T12:56:19.624Z,9.60
2023-04-24T12:58:48.852Z,9.20
2023-04-24T13:01:20.845Z,9.20
2023-04-24T13:03:50.253Z,9.10
2023-04-24T13:06:19.127Z,9.00
2023-04-24T13:08:49.082Z,9.20
2023-04-24T13:11:17.708Z,9.40
2023-04-24T13:13:46.228Z,9.40
2023-04-24T13:16:14.548Z,9.30
2023-04-24T13:18:44.501Z,9.10
2023-04-24T13:21:13.193Z,9.10
2023-04-24T13:23:42.875Z,9.20
2023-04-24T13:26:11.600Z,9.20
2023-04-24T13:28:40.364Z,9.40
2023-04-24T13:31:08.663Z,9.80
2023-04-24T13:33:40.104Z,10.30
2023-04-24T13:36:10.228Z,10.40
2023-04-24T13:38:40.422Z,10.30
2023-04-24T13:41:08.805Z,10.00
2023-04-24T13:43:37.463Z,10.00
2023-04-24T13:46:06.298Z,10.20
2023-04-24T13:48:34.816Z,10.20
2023-04-24T13:51:03.391Z,10.20
2023-04-24T13:53:33.839Z,10.10
2023-04-24T13:56:02.098Z,9.90
2023-04-24T13:58:30.337Z,10.00
2023-04-24T14:00:58.684Z,9.80
2023-04-24T14:03:27.261Z,9.60
2023-04-24T14:05:55.608Z,9.50
2023-04-24T14:08:24.293Z,9.50
2023-04-24T14:10:54.592Z,9.40
2023-04-24T14:13:23.162Z,9.40
2023-04-24T14:15:51.665Z,9.50
2023-04-24T14:18:19.895Z,9.60
2023-04-24T14:20:49.105Z,9.50
2023-04-24T14:23:18.721Z,9.50
2023-04-24T14:25:49.505Z,9.50
2023-04-24T14:28:19.311Z,9.50
2023-04-24T14:30:50.992Z,9.50
2023-04-24T14:33:20.139Z,9.50
2023-04-24T14:35:48.801Z,9.40
2023-04-24T14:38:17.370Z,9.20
2023-04-24T14:41:05.669Z,9.30
2023-04-24T14:43:36.275Z,9.30
2023-04-24T14:46:07.691Z,9.30
2023-04-24T14:48:36.290Z,9.30
2023-04-24T14:51:04.906Z,9.20
2023-04-24T14:53:33.087Z,9.30
2023-04-24T14:56:01.564Z,9.20
2023-04-24T14:58:29.796Z,9.20
2023-04-24T15:00:59.531Z,9.20
2023-04-24T15:03:29.464Z,9.10
2023-04-24T15:05:57.997Z,9.00
2023-04-24T15:08:26.604Z,9.00
2023-04-24T15:10:55.381Z,9.00
2023-04-24T15:13:24.448Z,9.00
2023-04-24T15:15:53.176Z,8.90
2023-04-24T15:18:22.798Z,8.90
2023-04-24T15:20:51.112Z,8.90
2023-04-24T15:23:19.549Z,9.00
2023-04-24T15:25:48.700Z,8.90
2023-04-24T15:28:17.137Z,9.10
2023-04-24T15:30:45.559Z,9.40
2023-04-24T15:33:14.053Z,9.70
2023-04-24T15:35:43.790Z,9.80
2023-04-24T15:38:12.338Z,9.80
2023-04-24T15:40:43.734Z,9.80
2023-04-24T15:43:13.003Z,9.70
2023-04-24T15:45:41.313Z,9.70
2023-04-24T15:48:12.746Z,9.70
2023-04-24T15:50:41.196Z,9.60
2023-04-24T15:53:11.101Z,9.50
2023-04-24T15:55:39.896Z,9.50
2023-04-24T15:58:08.768Z,9.30
2023-04-24T16:00:37.131Z,9.20
2023-04-24T16:03:08.421Z,9.20
2023-04-24T16:05:38.626Z,9.10
2023-04-24T16:08:07.375Z,9.10
2023-04-24T16:10:37.134Z,9.20
2023-04-24T16:13:06.446Z,9.10
2023-04-24T16:15:36.187Z,9.20
2023-04-24T16:18:05.146Z,9.30
2023-04-24T16:20:33.716Z,9.30
2023-04-24T16:23:02.005Z,9.40
2023-04-24T16:25:30.418Z,9.30
2023-04-24T16:28:00.734Z,9.40
2023-04-24T16:30:29.175Z,9.30
2023-04-24T16:32:57.475Z,9.20
2023-04-24T16:35:25.809Z,9.20
2023-04-24T16:37:54.165Z,9.10
2023-04-24T16:40:22.719Z,9.10
2023-04-24T16:42:52.812Z,9.10
2023-04-24T16:45:22.665Z,9.10
2023-04-24T16:47:51.084Z,9.00
2023-04-24T16:50:19.404Z,9.00
2023-04-24T16:52:47.706Z,9.10
2023-04-24T16:55:17.198Z,9.00
2023-04-24T16:57:45.620Z,9.00
2023-04-24T17:00:17.695Z,9.10
2023-04-24T17:02:49.621Z,9.20
2023-04-24T17:05:21.301Z,9.20
2023-04-24T17:07:55.889Z,9.10
2023-04-24T17:10:25.546Z,9.10
2023-04-24T17:12:54.131Z,9.20
2023-04-24T17:15:22.420Z,9.10
2023-04-24T17:17:52.249Z,9.10
2023-04-24T17:20:22.544Z,9.10
2023-04-24T17:22:51.649Z,9.10
2023-04-24T17:25:20.098Z,9.00
2023-04-24T17:27:48.714Z,8.90
2023-04-24T17:30:17.978Z,8.90
2023-04-24T17:32:46.679Z,8.90
2023-04-24T17:35:16.621Z,8.90
2023-04-24T17:37:45.154Z,8.80
2023-04-24T17:40:14.285Z,8.80
2023-04-24T17:42:43.015Z,8.90
2023-04-24T17:45:12.542Z,8.80
2023-04-24T17:47:41.111Z,8.80
2023-04-24T17:50:11.131Z,8.80
2023-04-24T17:52:40.750Z,8.90
2023-04-24T17:55:09.599Z,9.00
2023-04-24T17:57:38.170Z,8.90
2023-04-24T18:00:07.841Z,8.90
2023-04-24T18:02:37.210Z,8.90
2023-04-24T18:05:06.040Z,8.90
2023-04-24T18:07:34.241Z,8.90
2023-04-24T18:10:04.037Z,8.80
2023-04-24T18:12:32.526Z,8.70
2023-04-24T18:15:13.175Z,8.60
2023-04-24T18:17:42.518Z,8.60
2023-04-24T18:20:12.001Z,8.70
2023-04-24T18:22:40.778Z,8.60
2023-04-24T18:25:11.561Z,8.60
2023-04-24T18:27:40.469Z,8.60
2023-04-24T18:30:14.262Z,8.40
2023-04-24T18:32:43.457Z,8.40
2023-04-24T18:35:12.237Z,8.40
2023-04-24T18:37:40.626Z,8.40
2023-04-24T18:40:11.412Z,8.40
2023-04-24T18:42:40.178Z,8.30
2023-04-24T18:45:10.476Z,8.30
2023-04-24T18:47:39.850Z,8.20
2023-04-24T18:50:09.051Z,8.20
2023-04-24T18:52:37.376Z,8.20
2023-04-24T18:55:07.064Z,8.20
2023-04-24T18:57:36.943Z,8.20
2023-04-24T19:00:06.366Z,8.20
2023-04-24T19:02:34.881Z,8.10
2023-04-24T19:05:07.193Z,8.10
2023-04-24T19:07:38.589Z,8.20
2023-04-24T19:10:07.973Z,8.10
2023-04-24T19:12:38.546Z,8.10
2023-04-24T19:15:11.623Z,8.10
2023-04-24T19:17:40.295Z,8.10
2023-04-24T19:20:09.566Z,8.00
2023-04-24T19:22:38.106Z,8.00
2023-04-24T19:25:07.655Z,8.00
2023-04-24T19:27:37.628Z,8.00
2023-04-24T19:30:07.520Z,8.00
2023-04-24T19:32:35.848Z,7.90
2023-04-24T19:35:04.318Z,8.00
2023-04-24T19:37:34.442Z,7.90
2023-04-24T19:40:03.761Z,8.00
2023-04-24T19:42:43.345Z,7.90
2023-04-24T19:45:14.629Z,7.90
2023-04-24T19:47:43.297Z,7.90
2023-04-24T19:50:15.180Z,7.70
2023-04-24T19:52:46.761Z,7.60
2023-04-24T19:55:15.014Z,7.60
2023-04-24T19:57:43.593Z,7.60
2023-04-24T20:00:14.632Z,7.60
2023-04-24T20:02:43.331Z,7.60
2023-04-24T20:05:11.797Z,7.70
2023-04-24T20:07:40.303Z,7.50
2023-04-24T20:10:09.621Z,7.40
2023-04-24T20:12:37.899Z,7.40
2023-04-24T20:15:07.129Z,7.40
2023-04-24T20:17:36.804Z,7.30
2023-04-24T20:20:05.743Z,7.20
2023-04-24T20:22:38.797Z,7.20
2023-04-24T20:25:08.281Z,7.20
2023-04-24T20:27:37.185Z,7.30
2023-04-24T20:30:06.423Z,7.30
2023-04-24T20:32:36.392Z,7.30
2023-04-24T20:35:05.358Z,7.40
2023-04-24T20:37:34.058Z,7.50
2023-04-24T20:40:06.043Z,7.60
2023-04-24T20:42:34.634Z,7.60
2023-04-24T20:45:03.702Z,7.50
2023-04-24T20:47:36.011Z,7.50
2023-04-24T20:50:07.106Z,7.40
2023-04-24T20:52:35.741Z,7.40
2023-04-24T20:55:04.908Z,7.30
2023-04-24T20:57:33.698Z,7.30
2023-04-24T21:00:04.033Z,7.30
2023-04-24T21:02:32.653Z,7.20
2023-04-24T21:05:01.240Z,7.20
2023-04-24T21:07:31.274Z,7.10
2023-04-24T21:09:59.608Z,7.10
2023-04-24T21:12:27.913Z,7.10
2023-04-24T21:14:56.081Z,7.10
2023-04-24T21:17:36.399Z,7.00
2023-04-24T21:20:09.182Z,7.00
2023-04-24T21:22:39.460Z,7.00
2023-04-24T21:25:09.535Z,6.90
2023-04-24T21:27:38.387Z,6.90
2023-04-24T21:30:08.367Z,6.90
2023-04-24T21:32:37.104Z,6.90
2023-04-24T21:35:06.099Z,6.90
2023-04-24T21:37:35.848Z,6.90
2023-04-24T21:40:06.646Z,6.90
2023-04-24T21:42:35.079Z,6.90
2023-04-24T21:45:03.502Z,6.90
2023-04-24T21:47:32.262Z,6.90
2023-04-24T21:50:00.699Z,6.80
2023-04-24T21:52:29.169Z,6.80
2023-04-24T21:54:57.502Z,6.70
2023-04-24T21:57:27.139Z,6.70
2023-04-24T21:59:55.739Z,6.70
2023-04-24T22:02:24.090Z,6.70
2023-04-24T22:04:53.112Z,6.60
2023-04-24T22:07:21.642Z,6.40
2023-04-24T22:09:49.944Z,6.30
2023-04-24T22:12:19.149Z,6.30
2023-04-24T22:14:48.887Z,6.40
2023-04-24T22:17:17.326Z,6.40
2023-04-24T22:19:45.916Z,6.30
2023-04-24T22:22:14.499Z,6.30
2023-04-24T22:24:42.793Z,6.30
2023-04-24T22:27:11.088Z,6.30
2023-04-24T22:29:39.432Z,6.30
2023-04-24T22:32:09.396Z,6.20
2023-04-24T22:34:37.682Z,6.10
2023-04-24T22:37:06.575Z,6.00
2023-04-24T22:39:35.695Z,6.10
2023-04-24T22:42:04.112Z,6.10
2023-04-24T22:44:32.562Z,6.10
2023-04-24T22:47:00.832Z,6.00
2023-04-24T22:49:30.828Z,6.00
2023-04-24T22:51:59.123Z,6.00
2023-04-24T22:54:31.125Z,5.90
2023-04-24T22:56:59.369Z,5.90
2023-04-24T22:59:27.604Z,5.80
2023-04-24T23:01:56.088Z,5.80
2023-04-24T23:04:24.412Z,5.90
2023-04-24T23:06:54.406Z,5.80
2023-04-24T23:09:23.002Z,5.70
2023-04-24T23:11:51.452Z,5.70
2023-04-24T23:14:20.001Z,5.60
2023-04-24T23:16:48.955Z,5.60
2023-04-24T23:19:17.501Z,5.50
2023-04-24T23:21:45.725Z,5.40
2023-04-24T23:24:15.329Z,5.40
2023-04-24T23:26:43.462Z,5.30
2023-04-24T23:29:11.578Z,5.50
2023-04-24T23:31:39.770Z,5.50
2023-04-24T23:34:13.061Z,5.50
2023-04-24T23:36:45.720Z,5.50
2023-04-24T23:39:16.430Z,5.50
2023-04-24T23:41:45.060Z,5.50
2023-04-24T23:44:13.628Z,5.50
2023-04-24T23:46:41.962Z,5.50
2023-04-24T23:49:10.771Z,5.50
2023-04-24T23:51:39.386Z,5.60
2023-04-24T23:54:08.318Z,5.60
2023-04-24T23:56:38.272Z,5.50
2023-04-24T23:59:11.866Z,5.50
